sensor_id;sensor_type;location;lat;lon;timestamp;temperature;humidity
6540;DHT22;50344;51.142;16.892;2023-09-18T00:01:37;27.00;43.40
6540;DHT22;50344;51.142;16.892;2023-09-18T00:04:05;27.00;43.40
6540;DHT22;50344;51.142;16.892;2023-09-18T00:06:30;27.00;43.50
6540;DHT22;50344;51.142;16.892;2023-09-18T00:08:56;27.00;43.50
6540;DHT22;50344;51.142;16.892;2023-09-18T00:11:22;26.90;43.50
6540;DHT22;50344;51.142;16.892;2023-09-18T00:13:47;26.90;43.50
6540;DHT22;50344;51.142;16.892;2023-09-18T00:16:13;26.90;43.50
6540;DHT22;50344;51.142;16.892;2023-09-18T00:18:38;27.00;43.40
6540;DHT22;50344;51.142;16.892;2023-09-18T00:21:04;27.00;43.50
6540;DHT22;50344;51.142;16.892;2023-09-18T00:23:32;27.00;43.40
6540;DHT22;50344;51.142;16.892;2023-09-18T00:25:58;27.00;43.40
6540;DHT22;50344;51.142;16.892;2023-09-18T00:28:23;27.00;43.40
6540;DHT22;50344;51.142;16.892;2023-09-18T00:30:49;27.00;43.40
6540;DHT22;50344;51.142;16.892;2023-09-18T00:33:15;27.00;43.50
6540;DHT22;50344;51.142;16.892;2023-09-18T00:35:45;27.00;43.40
6540;DHT22;50344;51.142;16.892;2023-09-18T00:38:10;27.00;43.40
6540;DHT22;50344;51.142;16.892;2023-09-18T00:40:36;27.00;43.40
6540;DHT22;50344;51.142;16.892;2023-09-18T00:43:01;27.00;43.50
6540;DHT22;50344;51.142;16.892;2023-09-18T00:45:27;27.00;43.50
6540;DHT22;50344;51.142;16.892;2023-09-18T00:47:53;27.00;43.40
6540;DHT22;50344;51.142;16.892;2023-09-18T00:50:19;26.90;43.40
6540;DHT22;50344;51.142;16.892;2023-09-18T00:52:47;26.90;43.50
6540;DHT22;50344;51.142;16.892;2023-09-18T00:55:12;26.90;43.40
6540;DHT22;50344;51.142;16.892;2023-09-18T00:57:38;26.90;43.40
6540;DHT22;50344;51.142;16.892;2023-09-18T01:00:04;27.00;43.20
6540;DHT22;50344;51.142;16.892;2023-09-18T01:02:31;27.10;41.60
6540;DHT22;50344;51.142;16.892;2023-09-18T01:04:56;27.10;41.40
6540;DHT22;50344;51.142;16.892;2023-09-18T01:07:22;27.00;41.00
6540;DHT22;50344;51.142;16.892;2023-09-18T01:09:48;26.90;40.70
6540;DHT22;50344;51.142;16.892;2023-09-18T01:12:25;26.90;40.60
6540;DHT22;50344;51.142;16.892;2023-09-18T01:17:19;26.70;40.50
6540;DHT22;50344;51.142;16.892;2023-09-18T01:19:46;26.70;40.50
6540;DHT22;50344;51.142;16.892;2023-09-18T01:22:12;26.80;40.80
6540;DHT22;50344;51.142;16.892;2023-09-18T01:24:38;26.50;40.60
6540;DHT22;50344;51.142;16.892;2023-09-18T01:27:05;26.50;40.80
6540;DHT22;50344;51.142;16.892;2023-09-18T01:29:31;26.50;41.20
6540;DHT22;50344;51.142;16.892;2023-09-18T01:31:56;26.50;41.20
6540;DHT22;50344;51.142;16.892;2023-09-18T01:34:27;26.50;41.20
6540;DHT22;50344;51.142;16.892;2023-09-18T01:36:54;26.50;41.10
6540;DHT22;50344;51.142;16.892;2023-09-18T01:39:20;26.50;40.90
6540;DHT22;50344;51.142;16.892;2023-09-18T01:41:46;26.50;40.70
6540;DHT22;50344;51.142;16.892;2023-09-18T01:44:12;26.50;40.60
6540;DHT22;50344;51.142;16.892;2023-09-18T01:46:38;26.50;40.60
6540;DHT22;50344;51.142;16.892;2023-09-18T01:49:04;26.50;40.70
6540;DHT22;50344;51.142;16.892;2023-09-18T01:51:29;26.50;40.70
6540;DHT22;50344;51.142;16.892;2023-09-18T01:53:55;26.50;40.70
6540;DHT22;50344;51.142;16.892;2023-09-18T01:56:21;26.50;40.60
6540;DHT22;50344;51.142;16.892;2023-09-18T01:58:47;26.40;40.60
6540;DHT22;50344;51.142;16.892;2023-09-18T02:01:13;26.40;40.60
6540;DHT22;50344;51.142;16.892;2023-09-18T02:03:38;26.40;40.50
6540;DHT22;50344;51.142;16.892;2023-09-18T02:06:10;26.40;40.50
6540;DHT22;50344;51.142;16.892;2023-09-18T02:08:35;26.40;40.40
6540;DHT22;50344;51.142;16.892;2023-09-18T02:11:01;26.40;40.40
6540;DHT22;50344;51.142;16.892;2023-09-18T02:13:28;26.30;40.40
6540;DHT22;50344;51.142;16.892;2023-09-18T02:15:54;26.30;40.40
6540;DHT22;50344;51.142;16.892;2023-09-18T02:18:20;26.30;40.40
6540;DHT22;50344;51.142;16.892;2023-09-18T02:20:46;26.40;40.30
6540;DHT22;50344;51.142;16.892;2023-09-18T02:23:17;26.40;40.20
6540;DHT22;50344;51.142;16.892;2023-09-18T02:25:44;26.30;40.20
6540;DHT22;50344;51.142;16.892;2023-09-18T02:28:09;26.30;40.20
6540;DHT22;50344;51.142;16.892;2023-09-18T02:30:35;26.30;40.20
6540;DHT22;50344;51.142;16.892;2023-09-18T02:33:01;26.20;40.10
6540;DHT22;50344;51.142;16.892;2023-09-18T02:35:28;26.20;40.10
6540;DHT22;50344;51.142;16.892;2023-09-18T02:37:54;26.20;40.10
6540;DHT22;50344;51.142;16.892;2023-09-18T02:40:20;26.20;40.00
6540;DHT22;50344;51.142;16.892;2023-09-18T02:42:45;26.20;40.00
6540;DHT22;50344;51.142;16.892;2023-09-18T02:45:11;26.20;39.90
6540;DHT22;50344;51.142;16.892;2023-09-18T02:47:36;26.10;39.90
6540;DHT22;50344;51.142;16.892;2023-09-18T02:50:06;26.10;40.00
6540;DHT22;50344;51.142;16.892;2023-09-18T02:52:32;26.10;40.00
6540;DHT22;50344;51.142;16.892;2023-09-18T02:54:57;26.20;40.00
6540;DHT22;50344;51.142;16.892;2023-09-18T02:57:23;26.20;40.00
6540;DHT22;50344;51.142;16.892;2023-09-18T02:59:48;26.10;40.00
6540;DHT22;50344;51.142;16.892;2023-09-18T03:02:14;26.10;40.00
6540;DHT22;50344;51.142;16.892;2023-09-18T03:04:40;26.10;40.00
6540;DHT22;50344;51.142;16.892;2023-09-18T03:07:05;26.10;40.10
6540;DHT22;50344;51.142;16.892;2023-09-18T03:09:31;26.10;40.00
6540;DHT22;50344;51.142;16.892;2023-09-18T03:11:56;26.10;40.00
6540;DHT22;50344;51.142;16.892;2023-09-18T03:14:22;26.00;39.90
6540;DHT22;50344;51.142;16.892;2023-09-18T03:16:47;26.00;39.90
6540;DHT22;50344;51.142;16.892;2023-09-18T03:19:13;26.00;40.00
6540;DHT22;50344;51.142;16.892;2023-09-18T03:21:38;26.00;40.00
6540;DHT22;50344;51.142;16.892;2023-09-18T03:24:04;26.00;39.90
6540;DHT22;50344;51.142;16.892;2023-09-18T03:26:30;26.00;39.80
6540;DHT22;50344;51.142;16.892;2023-09-18T03:28:55;26.00;39.80
6540;DHT22;50344;51.142;16.892;2023-09-18T03:31:21;26.00;39.80
6540;DHT22;50344;51.142;16.892;2023-09-18T03:33:46;26.00;39.90
6540;DHT22;50344;51.142;16.892;2023-09-18T03:36:12;26.00;39.80
6540;DHT22;50344;51.142;16.892;2023-09-18T03:38:39;26.00;39.70
6540;DHT22;50344;51.142;16.892;2023-09-18T03:41:04;26.00;40.40
6540;DHT22;50344;51.142;16.892;2023-09-18T03:43:30;26.00;39.70
6540;DHT22;50344;51.142;16.892;2023-09-18T03:46:02;26.00;39.60
6540;DHT22;50344;51.142;16.892;2023-09-18T03:48:28;26.00;39.70
6540;DHT22;50344;51.142;16.892;2023-09-18T03:50:53;25.90;39.70
6540;DHT22;50344;51.142;16.892;2023-09-18T03:53:19;25.90;39.80
6540;DHT22;50344;51.142;16.892;2023-09-18T03:55:45;26.00;39.70
6540;DHT22;50344;51.142;16.892;2023-09-18T03:58:10;25.90;39.80
6540;DHT22;50344;51.142;16.892;2023-09-18T04:00:36;25.90;39.80
6540;DHT22;50344;51.142;16.892;2023-09-18T04:03:01;26.00;39.90
6540;DHT22;50344;51.142;16.892;2023-09-18T04:05:27;26.00;39.90
6540;DHT22;50344;51.142;16.892;2023-09-18T04:07:53;26.00;39.90
6540;DHT22;50344;51.142;16.892;2023-09-18T04:10:18;25.90;39.90
6540;DHT22;50344;51.142;16.892;2023-09-18T04:12:48;25.90;40.00
6540;DHT22;50344;51.142;16.892;2023-09-18T04:15:15;25.90;40.00
6540;DHT22;50344;51.142;16.892;2023-09-18T04:17:42;25.90;40.20
6540;DHT22;50344;51.142;16.892;2023-09-18T04:20:08;25.90;40.20
6540;DHT22;50344;51.142;16.892;2023-09-18T04:22:34;25.90;40.30
6540;DHT22;50344;51.142;16.892;2023-09-18T04:24:59;25.90;40.40
6540;DHT22;50344;51.142;16.892;2023-09-18T04:27:25;25.70;40.60
6540;DHT22;50344;51.142;16.892;2023-09-18T04:29:50;25.70;40.60
6540;DHT22;50344;51.142;16.892;2023-09-18T04:32:16;25.80;40.70
6540;DHT22;50344;51.142;16.892;2023-09-18T04:34:42;25.80;40.70
6540;DHT22;50344;51.142;16.892;2023-09-18T04:37:07;25.80;40.70
6540;DHT22;50344;51.142;16.892;2023-09-18T04:39:33;25.90;40.70
6540;DHT22;50344;51.142;16.892;2023-09-18T04:42:00;25.90;40.70
6540;DHT22;50344;51.142;16.892;2023-09-18T04:44:27;25.90;40.70
6540;DHT22;50344;51.142;16.892;2023-09-18T04:46:52;26.00;40.80
6540;DHT22;50344;51.142;16.892;2023-09-18T04:49:18;26.00;40.80
6540;DHT22;50344;51.142;16.892;2023-09-18T04:51:44;26.00;40.80
6540;DHT22;50344;51.142;16.892;2023-09-18T04:54:10;26.00;40.80
6540;DHT22;50344;51.142;16.892;2023-09-18T04:56:35;26.00;40.80
6540;DHT22;50344;51.142;16.892;2023-09-18T04:59:02;26.00;40.80
6540;DHT22;50344;51.142;16.892;2023-09-18T05:01:28;26.00;40.80
6540;DHT22;50344;51.142;16.892;2023-09-18T05:03:55;26.10;40.90
6540;DHT22;50344;51.142;16.892;2023-09-18T05:06:21;26.10;41.10
6540;DHT22;50344;51.142;16.892;2023-09-18T05:08:46;26.10;42.30
6540;DHT22;50344;51.142;16.892;2023-09-18T05:11:12;26.20;41.60
6540;DHT22;50344;51.142;16.892;2023-09-18T05:13:38;26.10;40.90
6540;DHT22;50344;51.142;16.892;2023-09-18T05:16:03;26.10;40.90
6540;DHT22;50344;51.142;16.892;2023-09-18T05:18:29;26.10;40.90
6540;DHT22;50344;51.142;16.892;2023-09-18T05:20:54;26.10;40.90
6540;DHT22;50344;51.142;16.892;2023-09-18T05:23:20;26.20;41.00
6540;DHT22;50344;51.142;16.892;2023-09-18T05:25:46;26.10;40.90
6540;DHT22;50344;51.142;16.892;2023-09-18T05:28:11;26.10;40.90
6540;DHT22;50344;51.142;16.892;2023-09-18T05:30:37;26.20;41.00
6540;DHT22;50344;51.142;16.892;2023-09-18T05:33:06;26.20;41.00
6540;DHT22;50344;51.142;16.892;2023-09-18T05:35:33;26.20;41.40
6540;DHT22;50344;51.142;16.892;2023-09-18T05:37:58;26.20;41.30
6540;DHT22;50344;51.142;16.892;2023-09-18T05:40:25;26.20;41.00
6540;DHT22;50344;51.142;16.892;2023-09-18T05:42:54;26.20;41.70
6540;DHT22;50344;51.142;16.892;2023-09-18T05:45:20;26.20;41.70
6540;DHT22;50344;51.142;16.892;2023-09-18T05:47:45;26.20;41.90
6540;DHT22;50344;51.142;16.892;2023-09-18T05:50:11;26.20;41.00
6540;DHT22;50344;51.142;16.892;2023-09-18T05:52:41;26.20;41.20
6540;DHT22;50344;51.142;16.892;2023-09-18T05:55:07;26.20;41.00
6540;DHT22;50344;51.142;16.892;2023-09-18T05:57:33;26.20;41.00
6540;DHT22;50344;51.142;16.892;2023-09-18T05:59:59;26.20;41.40
6540;DHT22;50344;51.142;16.892;2023-09-18T06:02:25;26.10;41.20
6540;DHT22;50344;51.142;16.892;2023-09-18T06:04:57;26.20;41.50
6540;DHT22;50344;51.142;16.892;2023-09-18T06:07:27;26.20;41.50
6540;DHT22;50344;51.142;16.892;2023-09-18T06:09:53;26.20;41.50
6540;DHT22;50344;51.142;16.892;2023-09-18T06:12:19;26.20;41.70
6540;DHT22;50344;51.142;16.892;2023-09-18T06:14:46;26.20;41.50
6540;DHT22;50344;51.142;16.892;2023-09-18T06:17:13;26.10;41.60
6540;DHT22;50344;51.142;16.892;2023-09-18T06:19:40;26.10;41.70
6540;DHT22;50344;51.142;16.892;2023-09-18T06:22:06;26.10;41.80
6540;DHT22;50344;51.142;16.892;2023-09-18T06:24:33;26.00;41.90
6540;DHT22;50344;51.142;16.892;2023-09-18T06:26:59;26.00;42.00
6540;DHT22;50344;51.142;16.892;2023-09-18T06:29:25;26.00;42.00
6540;DHT22;50344;51.142;16.892;2023-09-18T06:31:50;26.00;42.10
6540;DHT22;50344;51.142;16.892;2023-09-18T06:34:16;25.90;42.20
6540;DHT22;50344;51.142;16.892;2023-09-18T06:36:42;25.80;42.50
6540;DHT22;50344;51.142;16.892;2023-09-18T06:39:07;25.80;42.70
6540;DHT22;50344;51.142;16.892;2023-09-18T06:41:33;25.80;42.80
6540;DHT22;50344;51.142;16.892;2023-09-18T06:43:59;25.70;43.10
6540;DHT22;50344;51.142;16.892;2023-09-18T06:46:28;25.70;43.00
6540;DHT22;50344;51.142;16.892;2023-09-18T06:48:53;25.70;43.30
6540;DHT22;50344;51.142;16.892;2023-09-18T06:51:19;25.60;43.30
6540;DHT22;50344;51.142;16.892;2023-09-18T06:53:44;25.70;43.30
6540;DHT22;50344;51.142;16.892;2023-09-18T06:56:10;25.70;43.30
6540;DHT22;50344;51.142;16.892;2023-09-18T06:58:37;25.70;43.50
6540;DHT22;50344;51.142;16.892;2023-09-18T07:01:03;25.70;43.60
6540;DHT22;50344;51.142;16.892;2023-09-18T07:03:32;25.70;43.70
6540;DHT22;50344;51.142;16.892;2023-09-18T07:06:00;25.60;43.80
6540;DHT22;50344;51.142;16.892;2023-09-18T07:08:25;25.70;43.80
6540;DHT22;50344;51.142;16.892;2023-09-18T07:10:51;25.70;43.80
6540;DHT22;50344;51.142;16.892;2023-09-18T07:13:16;25.70;43.90
6540;DHT22;50344;51.142;16.892;2023-09-18T07:15:42;25.70;43.70
6540;DHT22;50344;51.142;16.892;2023-09-18T07:18:09;25.70;43.90
6540;DHT22;50344;51.142;16.892;2023-09-18T07:20:39;25.70;43.90
6540;DHT22;50344;51.142;16.892;2023-09-18T07:23:05;25.70;43.90
6540;DHT22;50344;51.142;16.892;2023-09-18T07:25:31;25.60;44.00
6540;DHT22;50344;51.142;16.892;2023-09-18T07:27:56;25.70;44.10
6540;DHT22;50344;51.142;16.892;2023-09-18T07:30:22;25.70;44.30
6540;DHT22;50344;51.142;16.892;2023-09-18T07:32:52;25.60;44.30
6540;DHT22;50344;51.142;16.892;2023-09-18T07:35:21;25.70;44.40
6540;DHT22;50344;51.142;16.892;2023-09-18T07:37:48;25.70;44.20
6540;DHT22;50344;51.142;16.892;2023-09-18T07:40:13;25.80;44.40
6540;DHT22;50344;51.142;16.892;2023-09-18T07:42:39;25.80;44.50
6540;DHT22;50344;51.142;16.892;2023-09-18T07:45:05;25.90;44.30
6540;DHT22;50344;51.142;16.892;2023-09-18T07:47:30;25.90;44.30
6540;DHT22;50344;51.142;16.892;2023-09-18T07:49:56;25.90;44.50
6540;DHT22;50344;51.142;16.892;2023-09-18T07:52:22;26.00;44.50
6540;DHT22;50344;51.142;16.892;2023-09-18T07:54:47;26.00;44.60
6540;DHT22;50344;51.142;16.892;2023-09-18T07:57:13;26.00;44.50
6540;DHT22;50344;51.142;16.892;2023-09-18T07:59:39;26.10;44.60
6540;DHT22;50344;51.142;16.892;2023-09-18T08:02:05;26.10;44.50
6540;DHT22;50344;51.142;16.892;2023-09-18T08:04:31;26.20;44.60
6540;DHT22;50344;51.142;16.892;2023-09-18T08:06:57;26.20;44.50
6540;DHT22;50344;51.142;16.892;2023-09-18T08:09:22;26.20;44.30
6540;DHT22;50344;51.142;16.892;2023-09-18T08:11:48;26.30;44.30
6540;DHT22;50344;51.142;16.892;2023-09-18T08:14:15;26.30;44.20
6540;DHT22;50344;51.142;16.892;2023-09-18T08:16:41;26.30;44.30
6540;DHT22;50344;51.142;16.892;2023-09-18T08:19:06;26.30;44.30
6540;DHT22;50344;51.142;16.892;2023-09-18T08:21:32;26.30;44.40
6540;DHT22;50344;51.142;16.892;2023-09-18T08:23:58;26.30;44.40
6540;DHT22;50344;51.142;16.892;2023-09-18T08:26:23;26.30;44.40
6540;DHT22;50344;51.142;16.892;2023-09-18T08:28:50;26.40;44.30
6540;DHT22;50344;51.142;16.892;2023-09-18T08:31:16;26.40;44.20
6540;DHT22;50344;51.142;16.892;2023-09-18T08:33:42;26.40;44.20
6540;DHT22;50344;51.142;16.892;2023-09-18T08:36:08;26.40;44.10
6540;DHT22;50344;51.142;16.892;2023-09-18T08:38:34;26.40;44.20
6540;DHT22;50344;51.142;16.892;2023-09-18T08:40:59;26.40;44.20
6540;DHT22;50344;51.142;16.892;2023-09-18T08:43:25;26.40;44.20
6540;DHT22;50344;51.142;16.892;2023-09-18T08:45:54;26.40;44.30
6540;DHT22;50344;51.142;16.892;2023-09-18T08:48:21;26.40;44.20
6540;DHT22;50344;51.142;16.892;2023-09-18T08:50:50;26.50;44.30
6540;DHT22;50344;51.142;16.892;2023-09-18T08:53:16;26.50;44.30
6540;DHT22;50344;51.142;16.892;2023-09-18T08:55:42;26.50;44.30
6540;DHT22;50344;51.142;16.892;2023-09-18T08:58:07;26.50;44.30
6540;DHT22;50344;51.142;16.892;2023-09-18T09:00:33;26.50;44.20
6540;DHT22;50344;51.142;16.892;2023-09-18T09:03:03;26.60;44.20
6540;DHT22;50344;51.142;16.892;2023-09-18T09:05:30;26.60;44.10
6540;DHT22;50344;51.142;16.892;2023-09-18T09:07:56;26.60;44.20
6540;DHT22;50344;51.142;16.892;2023-09-18T09:10:22;26.60;44.10
6540;DHT22;50344;51.142;16.892;2023-09-18T09:15:17;26.70;44.30
6540;DHT22;50344;51.142;16.892;2023-09-18T09:17:42;26.70;44.10
6540;DHT22;50344;51.142;16.892;2023-09-18T09:20:10;26.80;44.20
6540;DHT22;50344;51.142;16.892;2023-09-18T09:22:37;26.80;44.10
6540;DHT22;50344;51.142;16.892;2023-09-18T09:25:03;26.80;44.10
6540;DHT22;50344;51.142;16.892;2023-09-18T09:27:28;26.80;44.10
6540;DHT22;50344;51.142;16.892;2023-09-18T09:29:57;26.80;44.10
6540;DHT22;50344;51.142;16.892;2023-09-18T09:32:23;26.80;44.00
6540;DHT22;50344;51.142;16.892;2023-09-18T09:34:48;26.80;44.10
6540;DHT22;50344;51.142;16.892;2023-09-18T09:37:14;26.80;44.20
6540;DHT22;50344;51.142;16.892;2023-09-18T09:39:49;26.80;44.00
6540;DHT22;50344;51.142;16.892;2023-09-18T09:42:16;27.00;44.10
6540;DHT22;50344;51.142;16.892;2023-09-18T09:44:44;26.90;44.10
6540;DHT22;50344;51.142;16.892;2023-09-18T09:47:10;26.90;44.10
6540;DHT22;50344;51.142;16.892;2023-09-18T09:49:47;26.90;44.30
6540;DHT22;50344;51.142;16.892;2023-09-18T09:52:18;26.90;44.10
6540;DHT22;50344;51.142;16.892;2023-09-18T09:54:47;26.90;44.10
6540;DHT22;50344;51.142;16.892;2023-09-18T09:57:13;27.00;44.10
6540;DHT22;50344;51.142;16.892;2023-09-18T09:59:38;27.00;44.10
6540;DHT22;50344;51.142;16.892;2023-09-18T10:02:05;27.00;44.00
6540;DHT22;50344;51.142;16.892;2023-09-18T10:04:34;27.00;43.90
6540;DHT22;50344;51.142;16.892;2023-09-18T10:07:08;27.10;43.90
6540;DHT22;50344;51.142;16.892;2023-09-18T10:09:34;27.10;43.80
6540;DHT22;50344;51.142;16.892;2023-09-18T10:12:00;27.10;43.80
6540;DHT22;50344;51.142;16.892;2023-09-18T10:14:30;27.10;43.80
6540;DHT22;50344;51.142;16.892;2023-09-18T10:16:57;27.10;43.70
6540;DHT22;50344;51.142;16.892;2023-09-18T10:20:07;27.10;43.40
6540;DHT22;50344;51.142;16.892;2023-09-18T10:25:04;27.20;43.20
6540;DHT22;50344;51.142;16.892;2023-09-18T10:27:33;27.20;43.10
6540;DHT22;50344;51.142;16.892;2023-09-18T10:29:59;27.20;43.00
6540;DHT22;50344;51.142;16.892;2023-09-18T10:32:26;27.20;42.80
6540;DHT22;50344;51.142;16.892;2023-09-18T10:34:53;27.20;42.90
6540;DHT22;50344;51.142;16.892;2023-09-18T10:37:19;27.10;42.70
6540;DHT22;50344;51.142;16.892;2023-09-18T10:39:44;27.30;43.00
6540;DHT22;50344;51.142;16.892;2023-09-18T10:42:11;27.30;42.90
6540;DHT22;50344;51.142;16.892;2023-09-18T10:44:37;27.30;42.80
6540;DHT22;50344;51.142;16.892;2023-09-18T10:47:05;27.30;42.80
6540;DHT22;50344;51.142;16.892;2023-09-18T10:49:31;27.30;42.80
6540;DHT22;50344;51.142;16.892;2023-09-18T10:51:57;27.40;42.80
6540;DHT22;50344;51.142;16.892;2023-09-18T10:54:25;27.40;42.80
6540;DHT22;50344;51.142;16.892;2023-09-18T10:56:51;27.40;42.80
6540;DHT22;50344;51.142;16.892;2023-09-18T10:59:17;27.40;42.80
6540;DHT22;50344;51.142;16.892;2023-09-18T11:01:43;27.40;42.80
6540;DHT22;50344;51.142;16.892;2023-09-18T11:04:08;27.40;42.70
6540;DHT22;50344;51.142;16.892;2023-09-18T11:09:19;27.40;42.70
6540;DHT22;50344;51.142;16.892;2023-09-18T11:11:45;27.50;42.70
6540;DHT22;50344;51.142;16.892;2023-09-18T11:14:14;27.50;42.70
6540;DHT22;50344;51.142;16.892;2023-09-18T11:16:40;27.50;42.70
6540;DHT22;50344;51.142;16.892;2023-09-18T11:19:10;27.50;42.70
6540;DHT22;50344;51.142;16.892;2023-09-18T11:21:36;27.60;42.80
6540;DHT22;50344;51.142;16.892;2023-09-18T11:24:06;27.60;42.60
6540;DHT22;50344;51.142;16.892;2023-09-18T11:26:32;27.60;42.70
6540;DHT22;50344;51.142;16.892;2023-09-18T11:29:03;27.60;42.70
6540;DHT22;50344;51.142;16.892;2023-09-18T11:34:32;27.60;42.70
6540;DHT22;50344;51.142;16.892;2023-09-18T11:36:58;27.60;43.20
6540;DHT22;50344;51.142;16.892;2023-09-18T11:39:39;27.70;42.30
6540;DHT22;50344;51.142;16.892;2023-09-18T11:42:11;27.70;42.30
6540;DHT22;50344;51.142;16.892;2023-09-18T11:44:37;27.70;42.30
6540;DHT22;50344;51.142;16.892;2023-09-18T11:47:14;27.70;42.30
6540;DHT22;50344;51.142;16.892;2023-09-18T11:49:47;27.70;42.00
6540;DHT22;50344;51.142;16.892;2023-09-18T11:52:16;27.70;42.00
6540;DHT22;50344;51.142;16.892;2023-09-18T11:54:42;27.80;42.10
6540;DHT22;50344;51.142;16.892;2023-09-18T11:57:08;27.80;42.10
6540;DHT22;50344;51.142;16.892;2023-09-18T11:59:34;27.80;42.10
6540;DHT22;50344;51.142;16.892;2023-09-18T12:02:01;27.90;42.10
6540;DHT22;50344;51.142;16.892;2023-09-18T12:04:31;27.90;42.10
6540;DHT22;50344;51.142;16.892;2023-09-18T12:06:58;27.90;42.10
6540;DHT22;50344;51.142;16.892;2023-09-18T12:09:29;27.90;41.70
6540;DHT22;50344;51.142;16.892;2023-09-18T12:11:55;27.90;41.60
6540;DHT22;50344;51.142;16.892;2023-09-18T12:14:22;27.90;41.10
6540;DHT22;50344;51.142;16.892;2023-09-18T12:16:49;27.90;41.00
6540;DHT22;50344;51.142;16.892;2023-09-18T12:19:16;27.90;41.20
6540;DHT22;50344;51.142;16.892;2023-09-18T12:21:42;27.90;41.20
6540;DHT22;50344;51.142;16.892;2023-09-18T12:24:13;27.90;40.70
6540;DHT22;50344;51.142;16.892;2023-09-18T12:26:38;27.90;41.10
6540;DHT22;50344;51.142;16.892;2023-09-18T12:29:04;27.90;41.20
6540;DHT22;50344;51.142;16.892;2023-09-18T12:31:29;28.00;40.90
6540;DHT22;50344;51.142;16.892;2023-09-18T12:33:56;28.00;41.00
6540;DHT22;50344;51.142;16.892;2023-09-18T12:36:23;28.00;41.00
6540;DHT22;50344;51.142;16.892;2023-09-18T12:38:57;28.00;41.10
6540;DHT22;50344;51.142;16.892;2023-09-18T12:41:24;28.00;41.00
6540;DHT22;50344;51.142;16.892;2023-09-18T12:43:49;28.00;41.00
6540;DHT22;50344;51.142;16.892;2023-09-18T12:46:15;28.00;40.90
6540;DHT22;50344;51.142;16.892;2023-09-18T12:48:41;28.00;41.00
6540;DHT22;50344;51.142;16.892;2023-09-18T12:51:11;28.00;41.00
6540;DHT22;50344;51.142;16.892;2023-09-18T12:53:37;28.00;41.00
6540;DHT22;50344;51.142;16.892;2023-09-18T12:56:13;28.10;41.00
6540;DHT22;50344;51.142;16.892;2023-09-18T12:58:39;28.10;41.10
6540;DHT22;50344;51.142;16.892;2023-09-18T13:01:05;28.00;40.90
6540;DHT22;50344;51.142;16.892;2023-09-18T13:03:35;28.10;41.00
6540;DHT22;50344;51.142;16.892;2023-09-18T13:06:08;28.10;41.00
6540;DHT22;50344;51.142;16.892;2023-09-18T13:08:34;28.00;40.80
6540;DHT22;50344;51.142;16.892;2023-09-18T13:11:00;28.00;40.90
6540;DHT22;50344;51.142;16.892;2023-09-18T13:13:28;28.00;41.00
6540;DHT22;50344;51.142;16.892;2023-09-18T13:15:57;28.00;40.90
6540;DHT22;50344;51.142;16.892;2023-09-18T13:18:24;28.00;40.90
6540;DHT22;50344;51.142;16.892;2023-09-18T13:20:50;28.00;40.90
6540;DHT22;50344;51.142;16.892;2023-09-18T13:23:16;28.00;40.90
6540;DHT22;50344;51.142;16.892;2023-09-18T13:25:43;28.00;40.90
6540;DHT22;50344;51.142;16.892;2023-09-18T13:28:10;28.00;40.90
6540;DHT22;50344;51.142;16.892;2023-09-18T13:30:36;28.00;41.00
6540;DHT22;50344;51.142;16.892;2023-09-18T13:33:09;28.00;41.00
6540;DHT22;50344;51.142;16.892;2023-09-18T13:35:35;28.00;41.00
6540;DHT22;50344;51.142;16.892;2023-09-18T13:38:01;28.00;40.90
6540;DHT22;50344;51.142;16.892;2023-09-18T13:40:29;28.00;40.80
6540;DHT22;50344;51.142;16.892;2023-09-18T13:42:55;28.00;40.70
6540;DHT22;50344;51.142;16.892;2023-09-18T13:45:21;27.90;41.40
6540;DHT22;50344;51.142;16.892;2023-09-18T13:47:46;27.90;40.70
6540;DHT22;50344;51.142;16.892;2023-09-18T13:50:14;27.90;40.70
6540;DHT22;50344;51.142;16.892;2023-09-18T13:52:40;27.90;40.80
6540;DHT22;50344;51.142;16.892;2023-09-18T13:55:05;27.90;40.80
6540;DHT22;50344;51.142;16.892;2023-09-18T13:57:31;27.90;40.90
6540;DHT22;50344;51.142;16.892;2023-09-18T13:59:57;27.90;41.00
6540;DHT22;50344;51.142;16.892;2023-09-18T14:02:23;27.90;40.90
6540;DHT22;50344;51.142;16.892;2023-09-18T14:04:52;27.90;41.00
6540;DHT22;50344;51.142;16.892;2023-09-18T14:07:18;27.90;41.10
6540;DHT22;50344;51.142;16.892;2023-09-18T14:09:43;27.80;41.10
6540;DHT22;50344;51.142;16.892;2023-09-18T14:12:11;27.80;41.20
6540;DHT22;50344;51.142;16.892;2023-09-18T14:14:37;27.80;41.20
6540;DHT22;50344;51.142;16.892;2023-09-18T14:17:03;27.80;41.30
6540;DHT22;50344;51.142;16.892;2023-09-18T14:19:29;27.80;41.40
6540;DHT22;50344;51.142;16.892;2023-09-18T14:21:55;27.80;41.40
6540;DHT22;50344;51.142;16.892;2023-09-18T14:24:21;27.80;41.50
6540;DHT22;50344;51.142;16.892;2023-09-18T14:26:50;27.80;41.40
6540;DHT22;50344;51.142;16.892;2023-09-18T14:29:15;27.90;41.40
6540;DHT22;50344;51.142;16.892;2023-09-18T14:31:41;27.90;41.50
6540;DHT22;50344;51.142;16.892;2023-09-18T14:34:07;27.90;41.60
6540;DHT22;50344;51.142;16.892;2023-09-18T14:36:33;27.80;41.70
6540;DHT22;50344;51.142;16.892;2023-09-18T14:39:00;27.80;41.80
6540;DHT22;50344;51.142;16.892;2023-09-18T14:41:26;27.80;42.00
6540;DHT22;50344;51.142;16.892;2023-09-18T14:43:52;27.90;42.10
6540;DHT22;50344;51.142;16.892;2023-09-18T14:46:17;27.80;42.00
6540;DHT22;50344;51.142;16.892;2023-09-18T14:48:43;27.80;41.80
6540;DHT22;50344;51.142;16.892;2023-09-18T14:51:08;27.80;41.80
6540;DHT22;50344;51.142;16.892;2023-09-18T14:53:34;27.80;42.10
6540;DHT22;50344;51.142;16.892;2023-09-18T14:56:00;27.80;42.10
6540;DHT22;50344;51.142;16.892;2023-09-18T14:58:25;27.80;42.10
6540;DHT22;50344;51.142;16.892;2023-09-18T15:00:51;27.80;41.70
6540;DHT22;50344;51.142;16.892;2023-09-18T15:03:17;27.80;41.70
6540;DHT22;50344;51.142;16.892;2023-09-18T15:05:42;27.80;41.60
6540;DHT22;50344;51.142;16.892;2023-09-18T15:08:08;27.70;41.60
6540;DHT22;50344;51.142;16.892;2023-09-18T15:10:34;27.70;41.60
6540;DHT22;50344;51.142;16.892;2023-09-18T15:12:59;27.70;41.70
6540;DHT22;50344;51.142;16.892;2023-09-18T15:15:25;27.60;41.50
6540;DHT22;50344;51.142;16.892;2023-09-18T15:17:50;27.70;41.60
6540;DHT22;50344;51.142;16.892;2023-09-18T15:20:17;27.60;41.40
6540;DHT22;50344;51.142;16.892;2023-09-18T15:22:44;27.60;41.50
6540;DHT22;50344;51.142;16.892;2023-09-18T15:25:09;27.60;41.60
6540;DHT22;50344;51.142;16.892;2023-09-18T15:27:36;27.60;41.50
6540;DHT22;50344;51.142;16.892;2023-09-18T15:30:03;27.60;41.60
6540;DHT22;50344;51.142;16.892;2023-09-18T15:32:32;27.60;41.60
6540;DHT22;50344;51.142;16.892;2023-09-18T15:35:10;27.60;41.50
6540;DHT22;50344;51.142;16.892;2023-09-18T15:37:36;27.60;41.40
6540;DHT22;50344;51.142;16.892;2023-09-18T15:40:01;27.60;41.40